Time;durP1;ratioP1;P1;durP2;ratioP2;P2;SDS_P1;SDS_P2;PMS_P1;PMS_P2;Temp;Humidity;BMP_temperature;BMP_pressure;BME280_temperature;BME280_humidity;BME280_pressure;Samples;Min_cycle;Max_cycle;Signal;HPM_P1;HPM_P2
2023/11/16 05:31:19;;;;;;;0.10;0.10;;;11.10;93.80;;;;;;5562032;23;20079;-76
2023/11/16 05:33:45;;;;;;;0.10;0.10;;;11.10;93.70;;;;;;5035179;28;20033;-76
2023/11/16 05:36:11;;;;;;;0.10;0.10;;;11.10;93.70;;;;;;5037039;28;20021;-77
2023/11/16 05:38:37;;;;;;;0.10;0.10;;;11.10;93.40;;;;;;5037392;28;20032;-77
2023/11/16 05:41:02;;;;;;;0.00;0.00;;;11.10;93.30;;;;;;5036759;28;20021;-77
2023/11/16 05:43:28;;;;;;;0.10;0.10;;;11.10;93.10;;;;;;5036937;28;20494;-76
2023/11/16 05:45:54;;;;;;;0.10;0.10;;;11.20;93.30;;;;;;5019880;28;20032;-77
2023/11/16 05:48:19;;;;;;;0.10;0.10;;;11.10;93.00;;;;;;5037162;28;20029;-77
2023/11/16 05:50:46;;;;;;;0.10;0.10;;;11.20;93.20;;;;;;5036653;28;20476;-77
2023/11/16 05:53:12;;;;;;;0.10;0.10;;;11.20;93.20;;;;;;5018933;28;20021;-77
2023/11/16 05:56:04;;;;;;;0.10;0.10;;;11.20;93.20;;;;;;5033422;28;20024;-84
2023/11/16 05:58:29;;;;;;;0.10;0.10;;;11.20;93.10;;;;;;5033341;28;20091;-81
2023/11/16 06:01:33;;;;;;;0.10;0.10;;;11.30;93.20;;;;;;5031709;28;20022;-88
2023/11/16 06:04:02;;;;;;;0.10;0.10;;;11.30;93.10;;;;;;4955520;28;20048;-82
2023/11/16 06:10:19;;;;;;;0.00;0.00;;;11.40;93.00;;;;;;4975628;28;20034;-85
2023/11/16 06:16:31;;;;;;;0.10;0.10;;;11.50;93.10;;;;;;4971814;28;20045;-88
2023/11/16 06:18:58;;;;;;;0.10;0.10;;;11.60;93.10;;;;;;4970790;28;20090;-77
2023/11/16 06:21:40;;;;;;;0.10;0.10;;;11.70;93.20;;;;;;5021228;28;20041;-89
2023/11/16 06:24:06;;;;;;;0.05;0.05;;;11.70;93.10;;;;;;5018063;28;20037;-89
2023/11/16 06:26:33;;;;;;;0.10;0.10;;;11.70;93.00;;;;;;5019475;28;20036;-88
2023/11/16 06:28:59;;;;;;;0.10;0.10;;;11.80;93.10;;;;;;5036488;28;20112;-90
2023/11/16 06:31:24;;;;;;;0.10;0.10;;;11.80;93.00;;;;;;5014559;28;20077;-89
2023/11/16 06:33:50;;;;;;;0.00;0.00;;;11.80;93.00;;;;;;5020662;28;20030;-85
2023/11/16 06:36:16;;;;;;;0.00;0.00;;;11.80;92.90;;;;;;5000202;28;20031;-89
2023/11/16 06:38:41;;;;;;;0.10;0.10;;;11.80;93.10;;;;;;5016567;28;20149;-89
2023/11/16 06:41:07;;;;;;;0.00;0.00;;;11.90;93.20;;;;;;5016351;28;20029;-89
2023/11/16 06:43:33;;;;;;;0.00;0.00;;;12.00;93.20;;;;;;4998832;28;20088;-89
2023/11/16 06:46:00;;;;;;;0.00;0.00;;;12.00;93.20;;;;;;4998403;28;20042;-88
2023/11/16 06:48:26;;;;;;;0.10;0.10;;;12.10;93.20;;;;;;4997906;28;20399;-81
2023/11/16 06:50:54;;;;;;;0.10;0.10;;;12.10;93.10;;;;;;5016834;28;20563;-80
2023/11/16 06:53:21;;;;;;;0.05;0.05;;;12.20;93.20;;;;;;5016445;28;20101;-80
2023/11/16 06:55:49;;;;;;;0.00;0.00;;;12.30;93.10;;;;;;5016128;28;20033;-80
2023/11/16 06:58:16;;;;;;;0.10;0.10;;;12.30;93.10;;;;;;5016398;28;20018;-80
2023/11/16 07:00:43;;;;;;;0.10;0.10;;;12.30;93.10;;;;;;5014878;28;20049;-81
2023/11/16 07:03:09;;;;;;;0.10;0.10;;;12.40;93.20;;;;;;5013587;28;20080;-80
2023/11/16 07:05:35;;;;;;;0.10;0.10;;;12.40;93.20;;;;;;5014799;28;20018;-80
2023/11/16 07:08:02;;;;;;;0.10;0.10;;;12.50;93.10;;;;;;4996790;28;20026;-80
2023/11/16 07:10:28;;;;;;;0.10;0.10;;;12.50;93.10;;;;;;5016128;28;20029;-81
2023/11/16 07:12:55;;;;;;;0.10;0.10;;;12.60;93.30;;;;;;5008836;28;20492;-81
2023/11/16 07:15:21;;;;;;;0.10;0.10;;;12.70;93.50;;;;;;5016356;28;20166;-81
2023/11/16 07:17:48;;;;;;;0.10;0.10;;;12.70;93.50;;;;;;5031103;28;20033;-80
2023/11/16 07:20:14;;;;;;;0.10;0.10;;;12.80;93.60;;;;;;5018482;28;20021;-82
2023/11/16 07:22:42;;;;;;;0.10;0.10;;;12.80;93.50;;;;;;5026712;28;20403;-81
2023/11/16 07:25:09;;;;;;;0.10;0.10;;;12.90;93.40;;;;;;5016498;28;20042;-81
2023/11/16 07:27:35;;;;;;;0.10;0.10;;;12.90;93.30;;;;;;5015934;28;20029;-82
2023/11/16 07:30:03;;;;;;;0.10;0.10;;;13.00;93.20;;;;;;5016332;28;20076;-81
2023/11/16 07:32:30;;;;;;;0.10;0.10;;;13.00;93.20;;;;;;5035622;28;20050;-82
2023/11/16 07:34:58;;;;;;;0.10;0.10;;;13.10;93.00;;;;;;5014563;28;20046;-82
2023/11/16 07:37:25;;;;;;;0.10;0.10;;;13.20;93.00;;;;;;5016402;28;20092;-82
2023/11/16 07:39:51;;;;;;;0.28;0.20;;;13.10;92.90;;;;;;5017043;28;20033;-82
2023/11/16 07:42:17;;;;;;;0.20;0.20;;;13.20;92.80;;;;;;5021553;28;20160;-82
2023/11/16 07:44:44;;;;;;;0.10;0.10;;;13.20;92.70;;;;;;5039735;28;20049;-82
2023/11/16 07:47:10;;;;;;;0.10;0.10;;;13.20;92.60;;;;;;5039725;28;20029;-82
2023/11/16 07:49:36;;;;;;;0.10;0.10;;;13.20;92.60;;;;;;5038682;28;20029;-81
2023/11/16 07:52:02;;;;;;;0.10;0.10;;;13.20;92.40;;;;;;5021852;28;20088;-82
2023/11/16 07:54:28;;;;;;;0.10;0.10;;;13.20;92.40;;;;;;5021194;28;20029;-81
2023/11/16 07:56:59;;;;;;;0.20;0.20;;;13.20;92.20;;;;;;5002250;28;20037;-81
2023/11/16 07:59:32;;;;;;;0.10;0.10;;;13.20;92.20;;;;;;5001895;28;20033;-81
2023/11/16 08:02:00;;;;;;;0.10;0.10;;;13.20;92.20;;;;;;5028293;28;20033;-81
2023/11/16 08:04:32;;;;;;;0.10;0.10;;;13.30;92.20;;;;;;5021872;28;20451;-82
2023/11/16 08:06:59;;;;;;;0.10;0.10;;;13.30;92.20;;;;;;5020863;28;20026;-81
2023/11/16 08:09:29;;;;;;;0.10;0.10;;;13.20;92.10;;;;;;5039434;28;20381;-81
2023/11/16 08:11:54;;;;;;;0.17;0.17;;;13.30;92.00;;;;;;5038687;28;20030;-82
2023/11/16 08:14:24;;;;;;;0.20;0.20;;;13.30;91.90;;;;;;5021269;28;20037;-83
2023/11/16 08:16:58;;;;;;;0.15;0.15;;;13.30;91.90;;;;;;5045972;28;20372;-82
2023/11/16 08:19:31;;;;;;;0.20;0.20;;;13.30;92.00;;;;;;5058991;28;20025;-82
2023/11/16 08:21:59;;;;;;;0.22;0.20;;;13.30;91.80;;;;;;5059082;28;20124;-83
2023/11/16 08:24:28;;;;;;;0.20;0.20;;;13.30;91.80;;;;;;5045328;28;20434;-81
2023/11/16 08:26:58;;;;;;;0.20;0.20;;;13.30;91.80;;;;;;5038793;28;20480;-82
2023/11/16 08:29:24;;;;;;;0.20;0.20;;;13.40;91.80;;;;;;5041095;28;20072;-82
2023/11/16 08:31:54;;;;;;;0.10;0.10;;;13.40;91.70;;;;;;5020656;28;20507;-81
2023/11/16 08:34:20;;;;;;;0.22;0.20;;;13.30;91.70;;;;;;5038631;28;20453;-82
2023/11/16 08:36:46;;;;;;;0.32;0.30;;;13.40;91.80;;;;;;5038280;28;20112;-82
2023/11/16 08:39:14;;;;;;;0.20;0.20;;;13.40;91.80;;;;;;5038868;28;20034;-81
2023/11/16 08:41:42;;;;;;;0.20;0.20;;;13.40;91.80;;;;;;5038001;28;20496;-81
2023/11/16 08:44:09;;;;;;;0.20;0.20;;;13.40;91.80;;;;;;5038523;28;20377;-82
2023/11/16 08:46:41;;;;;;;0.20;0.20;;;13.50;91.80;;;;;;5038609;28;20043;-82
2023/11/16 08:49:10;;;;;;;0.20;0.20;;;13.50;91.90;;;;;;5037879;28;20026;-82
2023/11/16 08:51:38;;;;;;;0.28;0.28;;;13.50;91.70;;;;;;5019951;28;20033;-82
2023/11/16 08:54:07;;;;;;;0.43;0.30;;;13.50;91.70;;;;;;5037955;28;20075;-82
2023/11/16 08:56:35;;;;;;;0.10;0.10;;;13.60;91.80;;;;;;5038407;28;20053;-83
2023/11/16 08:59:04;;;;;;;0.10;0.10;;;13.50;91.70;;;;;;5020746;28;20029;-83
2023/11/16 09:01:32;;;;;;;0.20;0.20;;;13.50;91.70;;;;;;5020122;28;20109;-83
2023/11/16 09:03:59;;;;;;;0.10;0.10;;;13.50;91.60;;;;;;5020615;28;20472;-82
2023/11/16 09:06:26;;;;;;;0.20;0.20;;;13.50;91.80;;;;;;5038235;28;20476;-82
2023/11/16 09:08:51;;;;;;;0.25;0.25;;;13.60;91.60;;;;;;5020515;28;20387;-83
2023/11/16 09:11:21;;;;;;;0.10;0.10;;;13.60;91.70;;;;;;5019724;28;20021;-83
2023/11/16 09:13:48;;;;;;;0.10;0.10;;;13.50;91.70;;;;;;5038009;28;20399;-82
2023/11/16 09:16:14;;;;;;;0.13;0.10;;;13.60;91.70;;;;;;5022711;28;20059;-82
2023/11/16 09:18:41;;;;;;;0.13;0.13;;;13.60;91.70;;;;;;5041444;28;20502;-82
2023/11/16 09:21:09;;;;;;;0.30;0.20;;;13.60;91.70;;;;;;5019813;28;20022;-82
2023/11/16 09:23:38;;;;;;;0.20;0.20;;;13.60;91.60;;;;;;5037916;28;20029;-82
2023/11/16 09:26:04;;;;;;;0.20;0.20;;;13.70;91.80;;;;;;5037128;28;20487;-82
2023/11/16 09:28:30;;;;;;;0.15;0.15;;;13.70;91.70;;;;;;5037907;28;20093;-82
2023/11/16 09:30:58;;;;;;;0.20;0.20;;;13.70;91.60;;;;;;5019894;28;20084;-82
2023/11/16 09:33:23;;;;;;;0.17;0.17;;;13.70;91.70;;;;;;5037640;28;20014;-83
2023/11/16 09:35:51;;;;;;;0.10;0.10;;;13.70;91.70;;;;;;5019694;28;20060;-82
2023/11/16 09:38:18;;;;;;;0.20;0.20;;;13.80;91.70;;;;;;5037205;28;20022;-81
2023/11/16 09:40:44;;;;;;;0.10;0.10;;;13.80;91.60;;;;;;5036904;28;20021;-82
2023/11/16 09:43:17;;;;;;;0.15;0.15;;;13.70;91.70;;;;;;5037228;28;20018;-82
2023/11/16 09:45:53;;;;;;;0.10;0.10;;;13.80;91.70;;;;;;5037533;28;20447;-82
2023/11/16 09:48:20;;;;;;;0.10;0.10;;;13.90;91.60;;;;;;5019109;28;20064;-82
2023/11/16 09:50:53;;;;;;;0.17;0.17;;;13.90;91.60;;;;;;5037369;28;20021;-83
2023/11/16 09:53:26;;;;;;;0.10;0.10;;;13.90;91.50;;;;;;5019415;28;20369;-82
2023/11/16 09:55:57;;;;;;;0.10;0.10;;;14.00;91.50;;;;;;5024217;28;20025;-83
2023/11/16 09:58:25;;;;;;;0.10;0.10;;;14.00;91.60;;;;;;5044124;28;20022;-83
2023/11/16 10:00:55;;;;;;;0.10;0.10;;;14.10;91.50;;;;;;5019643;28;20032;-83
2023/11/16 10:03:36;;;;;;;0.20;0.20;;;14.20;91.40;;;;;;5018462;28;20025;-83
2023/11/16 10:06:06;;;;;;;0.20;0.20;;;14.20;91.40;;;;;;5037143;28;20101;-82
2023/11/16 10:08:33;;;;;;;0.10;0.10;;;14.20;91.20;;;;;;5037395;28;20021;-83
2023/11/16 10:11:05;;;;;;;0.20;0.20;;;14.30;91.20;;;;;;5036410;28;20500;-83
2023/11/16 10:13:32;;;;;;;0.10;0.10;;;14.30;91.20;;;;;;5037345;28;20057;-82
2023/11/16 10:16:11;;;;;;;0.10;0.10;;;14.40;91.00;;;;;;5037147;28;20021;-83
2023/11/16 10:18:41;;;;;;;0.28;0.20;;;14.50;91.00;;;;;;5027478;28;20033;-82
2023/11/16 10:21:08;;;;;;;0.05;0.05;;;14.50;90.80;;;;;;5016928;28;20029;-82
2023/11/16 10:23:34;;;;;;;0.30;0.20;;;14.50;91.00;;;;;;5010638;28;20534;-82
2023/11/16 10:26:00;;;;;;;0.10;0.10;;;14.50;90.60;;;;;;5036766;28;20096;-82
2023/11/16 10:28:26;;;;;;;0.10;0.10;;;14.60;90.60;;;;;;5019451;28;20026;-83
2023/11/16 10:30:54;;;;;;;0.10;0.10;;;14.60;90.60;;;;;;5036082;28;20120;-81
2023/11/16 10:33:25;;;;;;;0.10;0.10;;;14.60;90.60;;;;;;5036778;28;20025;-82
2023/11/16 10:36:01;;;;;;;0.10;0.10;;;14.60;90.70;;;;;;5018331;28;20025;-82
2023/11/16 10:38:27;;;;;;;0.10;0.10;;;14.60;90.70;;;;;;5036806;28;20033;-81
2023/11/16 10:40:54;;;;;;;0.10;0.10;;;14.70;90.60;;;;;;5045091;28;20037;-82
2023/11/16 10:43:27;;;;;;;0.10;0.10;;;14.70;90.50;;;;;;5018199;28;20033;-82
2023/11/16 10:45:57;;;;;;;0.10;0.10;;;14.70;90.50;;;;;;5036617;28;20033;-82
2023/11/16 10:48:23;;;;;;;0.03;0.03;;;14.70;90.40;;;;;;5019119;28;20049;-82
2023/11/16 10:50:50;;;;;;;0.10;0.10;;;14.70;90.20;;;;;;5036010;28;20034;-82
2023/11/16 10:53:23;;;;;;;0.10;0.10;;;14.80;90.40;;;;;;5019133;28;20032;-82
2023/11/16 10:55:50;;;;;;;0.10;0.10;;;14.80;90.40;;;;;;5036005;28;20025;-82
2023/11/16 10:58:20;;;;;;;0.10;0.10;;;14.80;90.30;;;;;;5018670;28;20033;-81
2023/11/16 11:00:50;;;;;;;0.10;0.10;;;14.80;90.20;;;;;;5036067;28;20035;-83
2023/11/16 11:03:17;;;;;;;0.10;0.10;;;14.80;90.20;;;;;;5018948;28;20041;-82
2023/11/16 11:05:48;;;;;;;0.10;0.10;;;14.80;90.10;;;;;;5018434;28;20035;-82
2023/11/16 11:08:17;;;;;;;0.10;0.10;;;14.80;90.00;;;;;;5018755;28;20056;-82
2023/11/16 11:10:52;;;;;;;0.10;0.10;;;14.90;90.10;;;;;;5035790;28;20029;-82
2023/11/16 11:13:26;;;;;;;0.08;0.08;;;14.90;89.90;;;;;;5036473;28;20025;-83
2023/11/16 11:15:53;;;;;;;0.00;0.00;;;14.90;90.00;;;;;;5020049;28;20389;-82
2023/11/16 11:18:26;;;;;;;0.10;0.10;;;14.80;89.90;;;;;;5039423;28;20029;-81
2023/11/16 11:21:07;;;;;;;0.00;0.00;;;14.90;89.90;;;;;;5040487;28;20052;-81
2023/11/16 11:23:33;;;;;;;0.10;0.10;;;14.90;90.00;;;;;;5039622;28;20100;-80
2023/11/16 11:26:03;;;;;;;0.10;0.10;;;15.00;90.00;;;;;;5039928;28;20017;-81
2023/11/16 11:28:30;;;;;;;0.10;0.10;;;14.90;89.90;;;;;;5040165;28;20443;-81
2023/11/16 11:30:59;;;;;;;0.10;0.10;;;14.90;89.90;;;;;;5039974;28;20113;-81
2023/11/16 11:33:41;;;;;;;0.00;0.00;;;14.90;89.90;;;;;;5021044;28;20036;-81
2023/11/16 11:36:09;;;;;;;0.10;0.10;;;14.90;89.80;;;;;;5021521;28;20024;-81
2023/11/16 11:38:42;;;;;;;0.10;0.10;;;14.80;89.90;;;;;;5021628;28;20029;-80
2023/11/16 11:41:12;;;;;;;0.10;0.10;;;14.80;90.00;;;;;;5021842;28;20017;-84
2023/11/16 11:43:41;;;;;;;0.10;0.10;;;14.70;90.10;;;;;;5021232;28;20060;-83
2023/11/16 11:46:11;;;;;;;0.10;0.10;;;14.70;90.30;;;;;;5039570;28;20478;-83
2023/11/16 11:48:40;;;;;;;0.10;0.10;;;14.80;90.30;;;;;;5022019;28;20029;-82
2023/11/16 11:51:16;;;;;;;0.10;0.10;;;14.80;90.10;;;;;;5041664;28;20494;-84
2023/11/16 11:53:45;;;;;;;0.10;0.10;;;14.80;90.20;;;;;;5059651;28;20026;-80
2023/11/16 11:56:12;;;;;;;0.10;0.10;;;14.80;90.10;;;;;;5041342;28;20085;-84
2023/11/16 11:58:41;;;;;;;0.10;0.10;;;14.90;90.20;;;;;;5038112;28;20028;-86
2023/11/16 12:01:11;;;;;;;0.10;0.10;;;14.90;90.00;;;;;;5021554;28;20084;-83
2023/11/16 12:04:04;;;;;;;0.10;0.10;;;14.90;90.00;;;;;;5021780;28;20029;-89
2023/11/16 12:06:30;;;;;;;0.10;0.10;;;14.90;90.10;;;;;;5021768;28;20022;-88
2023/11/16 12:08:56;;;;;;;0.10;0.10;;;14.90;90.10;;;;;;5038870;28;20108;-79
2023/11/16 12:11:25;;;;;;;0.10;0.10;;;15.00;89.90;;;;;;5021552;28;20672;-83
2023/11/16 12:13:55;;;;;;;0.10;0.10;;;15.10;89.40;;;;;;5039072;28;20024;-85
2023/11/16 12:16:25;;;;;;;0.10;0.10;;;15.30;89.00;;;;;;5021134;28;20025;-85
2023/11/16 12:18:54;;;;;;;0.10;0.10;;;15.50;88.20;;;;;;5021272;28;20434;-84
2023/11/16 12:21:22;;;;;;;0.10;0.10;;;15.40;87.20;;;;;;5021173;28;20454;-78
2023/11/16 12:23:53;;;;;;;0.00;0.00;;;15.50;87.00;;;;;;5021472;28;20017;-77
2023/11/16 12:26:24;;;;;;;0.10;0.10;;;15.30;87.10;;;;;;5038222;28;20021;-77
2023/11/16 12:28:50;;;;;;;0.10;0.10;;;15.20;86.70;;;;;;5038834;28;20074;-81
2023/11/16 12:31:18;;;;;;;0.10;0.10;;;15.00;87.10;;;;;;5017241;28;20106;-77
2023/11/16 12:33:47;;;;;;;0.10;0.10;;;15.00;86.40;;;;;;5018956;28;20022;-77
2023/11/16 12:36:17;;;;;;;0.10;0.10;;;14.90;86.60;;;;;;5023422;28;20017;-77
2023/11/16 12:38:43;;;;;;;0.10;0.10;;;14.90;87.00;;;;;;5031177;28;20026;-77
2023/11/16 12:41:10;;;;;;;0.10;0.10;;;14.90;86.90;;;;;;5018893;28;20137;-77
2023/11/16 12:43:35;;;;;;;0.10;0.10;;;15.00;86.50;;;;;;5019059;28;20033;-77
2023/11/16 12:46:01;;;;;;;0.10;0.10;;;15.00;86.20;;;;;;5018103;28;20030;-78
2023/11/16 12:48:27;;;;;;;0.10;0.10;;;15.10;85.90;;;;;;5017553;28;20030;-79
2023/11/16 12:50:53;;;;;;;0.10;0.10;;;15.10;86.00;;;;;;5016877;28;20845;-78
2023/11/16 12:53:19;;;;;;;0.10;0.10;;;15.00;85.10;;;;;;5017720;28;20089;-78
2023/11/16 12:55:45;;;;;;;0.10;0.10;;;14.90;85.50;;;;;;5018822;28;20437;-76
2023/11/16 12:58:12;;;;;;;0.00;0.00;;;14.80;85.10;;;;;;5018223;28;20026;-79
2023/11/16 13:00:38;;;;;;;0.00;0.00;;;14.80;85.70;;;;;;5018127;28;20022;-82
2023/11/16 13:03:04;;;;;;;0.05;0.05;;;14.90;84.80;;;;;;5018327;28;20036;-77
2023/11/16 13:05:30;;;;;;;0.10;0.10;;;14.90;85.20;;;;;;5018547;28;20408;-80
2023/11/16 13:07:58;;;;;;;0.10;0.10;;;14.90;85.20;;;;;;5017775;28;20022;-79
2023/11/16 13:10:24;;;;;;;0.10;0.10;;;15.00;83.70;;;;;;5018454;28;20022;-78
2023/11/16 13:12:50;;;;;;;0.10;0.10;;;14.90;83.20;;;;;;5017218;28;20037;-78
2023/11/16 13:15:16;;;;;;;0.10;0.10;;;14.90;83.10;;;;;;5016535;28;20026;-78
2023/11/16 13:17:41;;;;;;;0.10;0.10;;;15.00;83.60;;;;;;5016907;28;20116;-78
2023/11/16 13:20:09;;;;;;;0.00;0.00;;;15.00;83.30;;;;;;5017554;28;20079;-78
2023/11/16 13:22:35;;;;;;;0.10;0.10;;;15.00;83.60;;;;;;5016709;28;20117;-79
2023/11/16 13:25:01;;;;;;;0.05;0.05;;;14.80;84.40;;;;;;5018175;28;20049;-79
2023/11/16 13:27:27;;;;;;;0.00;0.00;;;14.70;84.00;;;;;;5018101;28;20029;-79
2023/11/16 13:29:54;;;;;;;0.00;0.00;;;14.70;84.60;;;;;;5017299;28;20033;-78
2023/11/16 13:32:19;;;;;;;0.00;0.00;;;14.50;84.00;;;;;;5036040;28;20140;-78
2023/11/16 13:34:46;;;;;;;0.10;0.10;;;14.50;84.80;;;;;;5017050;28;20061;-78
2023/11/16 13:37:12;;;;;;;0.10;0.10;;;14.50;84.90;;;;;;5036838;28;20021;-78
2023/11/16 13:39:38;;;;;;;0.10;0.10;;;14.40;84.40;;;;;;5020167;28;20089;-84
2023/11/16 13:42:03;;;;;;;0.10;0.10;;;14.30;84.40;;;;;;5037054;28;20465;-77
2023/11/16 13:44:31;;;;;;;0.10;0.10;;;14.30;84.10;;;;;;5035015;28;20105;-77
2023/11/16 13:46:57;;;;;;;0.10;0.10;;;14.20;84.60;;;;;;5037376;28;20021;-77
2023/11/16 13:49:23;;;;;;;0.10;0.10;;;14.10;85.00;;;;;;5036698;28;20104;-78
2023/11/16 13:51:49;;;;;;;0.10;0.10;;;14.00;85.40;;;;;;5019694;28;20056;-79
2023/11/16 13:54:14;;;;;;;0.10;0.10;;;14.00;86.20;;;;;;5037036;28;20030;-89
2023/11/16 13:56:40;;;;;;;0.08;0.08;;;14.00;86.20;;;;;;5019117;28;20028;-86
2023/11/16 13:59:05;;;;;;;0.10;0.10;;;14.00;85.90;;;;;;5037175;28;20879;-87
2023/11/16 14:01:31;;;;;;;0.00;0.00;;;14.00;86.40;;;;;;5010256;28;20121;-85
2023/11/16 14:03:57;;;;;;;0.10;0.10;;;14.00;86.40;;;;;;5000254;28;20018;-88
2023/11/16 14:06:23;;;;;;;0.03;0.03;;;14.00;85.70;;;;;;5017486;28;20030;-88
2023/11/16 14:08:49;;;;;;;0.10;0.10;;;13.80;85.90;;;;;;4999915;28;20056;-87
2023/11/16 14:11:16;;;;;;;0.10;0.10;;;13.70;86.00;;;;;;5003724;28;20112;-86
2023/11/16 14:13:43;;;;;;;0.10;0.10;;;13.80;86.40;;;;;;5036912;28;20013;-85
2023/11/16 14:16:09;;;;;;;0.10;0.10;;;13.70;85.30;;;;;;5021140;28;20022;-85
2023/11/16 14:18:36;;;;;;;0.00;0.00;;;13.70;85.30;;;;;;5042503;28;20105;-85
2023/11/16 14:21:06;;;;;;;0.05;0.05;;;13.80;86.20;;;;;;5019549;28;20080;-86
2023/11/16 14:23:36;;;;;;;0.03;0.03;;;13.70;85.90;;;;;;5036969;28;20032;-86
2023/11/16 14:26:05;;;;;;;0.10;0.10;;;13.70;86.30;;;;;;5019001;28;20101;-85
2023/11/16 14:28:33;;;;;;;0.10;0.10;;;13.70;86.20;;;;;;5036723;28;20029;-86
2023/11/16 14:30:59;;;;;;;0.10;0.10;;;13.60;86.10;;;;;;5018602;28;20518;-87
2023/11/16 14:33:24;;;;;;;0.10;0.10;;;13.50;85.80;;;;;;5019298;28;20021;-86
2023/11/16 14:35:50;;;;;;;0.00;0.00;;;13.50;84.80;;;;;;5019317;28;20063;-86
2023/11/16 14:38:16;;;;;;;0.00;0.00;;;13.40;85.40;;;;;;5019240;28;20083;-85
2023/11/16 14:40:41;;;;;;;0.10;0.10;;;13.40;85.70;;;;;;5018014;28;20036;-84
2023/11/16 14:43:07;;;;;;;0.10;0.10;;;13.40;85.50;;;;;;5036433;28;20040;-84
2023/11/16 14:45:34;;;;;;;0.00;0.00;;;13.20;84.70;;;;;;5036816;28;20018;-88
2023/11/16 14:48:00;;;;;;;0.10;0.10;;;13.20;84.50;;;;;;5028511;28;20029;-86
2023/11/16 14:50:26;;;;;;;0.10;0.10;;;13.20;83.80;;;;;;5022013;28;20534;-86
2023/11/16 14:52:52;;;;;;;0.08;0.08;;;13.20;84.70;;;;;;5022033;28;20025;-84
2023/11/16 14:55:17;;;;;;;0.10;0.10;;;13.20;85.00;;;;;;5022808;28;20036;-86
2023/11/16 14:57:43;;;;;;;0.10;0.10;;;13.20;84.50;;;;;;5040241;28;20108;-87
2023/11/16 15:00:09;;;;;;;0.10;0.10;;;13.20;84.30;;;;;;5058085;28;20024;-86
2023/11/16 15:02:36;;;;;;;0.10;0.10;;;13.10;84.40;;;;;;5060513;28;20033;-86
2023/11/16 15:05:06;;;;;;;0.10;0.10;;;13.10;85.00;;;;;;5032592;28;20043;-85
2023/11/16 15:07:31;;;;;;;0.10;0.10;;;13.10;85.20;;;;;;5023037;28;20026;-84
2023/11/16 15:09:57;;;;;;;0.10;0.10;;;13.10;85.30;;;;;;5021722;28;20032;-84
2023/11/16 15:12:23;;;;;;;0.00;0.00;;;13.00;84.50;;;;;;5039784;28;20109;-85
2023/11/16 15:14:48;;;;;;;0.10;0.10;;;13.00;85.20;;;;;;5022294;28;20083;-84
2023/11/16 15:17:14;;;;;;;0.10;0.10;;;13.00;85.30;;;;;;5051175;28;20078;-85
2023/11/16 15:19:40;;;;;;;0.10;0.10;;;13.00;86.30;;;;;;5042497;28;20476;-85
2023/11/16 15:22:08;;;;;;;0.10;0.10;;;12.90;85.40;;;;;;5040003;28;20024;-85
2023/11/16 15:24:34;;;;;;;0.10;0.10;;;12.90;85.80;;;;;;5022209;28;20021;-86
2023/11/16 15:26:59;;;;;;;0.10;0.10;;;12.80;84.70;;;;;;5022565;28;20033;-86
2023/11/16 15:29:25;;;;;;;0.10;0.10;;;12.70;84.80;;;;;;5040145;28;20033;-84
2023/11/16 15:31:51;;;;;;;0.10;0.10;;;12.70;86.40;;;;;;5038848;28;20060;-85
2023/11/16 15:34:16;;;;;;;0.10;0.10;;;12.80;86.30;;;;;;5021853;28;20026;-85
2023/11/16 15:36:42;;;;;;;0.10;0.10;;;12.80;87.30;;;;;;5022535;28;20064;-85
2023/11/16 15:39:10;;;;;;;0.10;0.10;;;12.80;87.20;;;;;;5040151;28;20040;-85
2023/11/16 15:41:37;;;;;;;0.10;0.10;;;12.80;87.40;;;;;;5039322;28;20044;-84
2023/11/16 15:44:03;;;;;;;0.10;0.10;;;12.90;87.40;;;;;;5022010;28;20087;-87
2023/11/16 15:46:29;;;;;;;0.10;0.10;;;12.80;86.10;;;;;;5022225;28;20025;-85
2023/11/16 15:48:55;;;;;;;0.10;0.10;;;12.80;87.00;;;;;;5020695;28;20029;-85
2023/11/16 15:51:22;;;;;;;0.10;0.10;;;12.80;87.00;;;;;;5039534;28;20053;-84
2023/11/16 15:53:51;;;;;;;0.10;0.10;;;12.80;87.20;;;;;;5039595;28;20467;-85
2023/11/16 15:56:17;;;;;;;0.10;0.10;;;12.80;86.60;;;;;;5039012;28;20056;-85
2023/11/16 15:58:42;;;;;;;0.10;0.10;;;12.70;85.90;;;;;;5039006;28;20396;-85
2023/11/16 16:01:08;;;;;;;0.10;0.10;;;12.70;86.80;;;;;;5038812;28;20017;-84
2023/11/16 16:03:34;;;;;;;0.10;0.10;;;12.80;86.90;;;;;;5039578;28;20108;-85
2023/11/16 16:06:00;;;;;;;0.03;0.03;;;12.80;87.10;;;;;;5039493;28;20036;-86
2023/11/16 16:08:27;;;;;;;0.10;0.10;;;12.80;87.40;;;;;;5021206;28;20116;-86
2023/11/16 16:10:54;;;;;;;0.10;0.10;;;12.80;87.20;;;;;;5019351;28;20044;-85
2023/11/16 16:13:19;;;;;;;0.10;0.10;;;12.80;87.30;;;;;;5001662;28;20040;-86
2023/11/16 16:15:48;;;;;;;0.00;0.00;;;12.80;87.40;;;;;;5021523;28;20033;-85
2023/11/16 16:18:15;;;;;;;0.10;0.10;;;12.80;87.20;;;;;;5040232;28;20115;-86
2023/11/16 16:20:40;;;;;;;0.10;0.10;;;12.60;86.40;;;;;;5028657;28;20048;-86
2023/11/16 16:23:06;;;;;;;0.10;0.10;;;12.60;87.50;;;;;;5021568;28;20116;-86
2023/11/16 16:25:32;;;;;;;0.10;0.10;;;12.50;86.20;;;;;;5039115;28;20022;-86
2023/11/16 16:27:58;;;;;;;0.10;0.10;;;12.50;86.40;;;;;;5020427;28;20072;-85
2023/11/16 16:30:23;;;;;;;0.10;0.10;;;12.40;86.60;;;;;;5020690;28;20085;-85
2023/11/16 16:32:49;;;;;;;0.10;0.10;;;12.30;86.30;;;;;;5038181;28;20044;-85
2023/11/16 16:35:16;;;;;;;0.10;0.10;;;12.30;85.80;;;;;;5021142;28;20057;-85
2023/11/16 16:37:42;;;;;;;0.15;0.10;;;12.20;85.80;;;;;;5020963;28;20021;-85
2023/11/16 16:40:08;;;;;;;0.10;0.10;;;12.20;86.70;;;;;;5020741;28;20043;-85
2023/11/16 16:42:34;;;;;;;0.10;0.10;;;12.20;86.90;;;;;;5055051;28;20029;-85
2023/11/16 16:45:00;;;;;;;0.10;0.10;;;12.30;86.60;;;;;;5058888;28;20059;-84
2023/11/16 16:47:25;;;;;;;0.10;0.10;;;12.20;86.50;;;;;;5044027;28;20061;-86
2023/11/16 16:49:52;;;;;;;0.10;0.10;;;12.30;86.50;;;;;;5038307;28;20025;-85
2023/11/16 16:52:18;;;;;;;0.10;0.10;;;12.20;85.40;;;;;;5021025;28;20029;-85
2023/11/16 16:54:45;;;;;;;0.10;0.10;;;12.20;85.70;;;;;;5020432;28;20029;-85
2023/11/16 16:57:13;;;;;;;0.10;0.10;;;12.10;84.80;;;;;;5038367;28;20053;-85
2023/11/16 16:59:39;;;;;;;0.10;0.10;;;12.20;86.20;;;;;;5022431;28;20752;-77
2023/11/16 17:02:07;;;;;;;0.00;0.00;;;12.20;86.20;;;;;;5037550;28;20115;-78
2023/11/16 17:04:33;;;;;;;0.10;0.10;;;12.10;85.50;;;;;;5037922;28;20049;-78
2023/11/16 17:06:59;;;;;;;0.10;0.10;;;12.10;86.80;;;;;;5037321;28;20026;-78
2023/11/16 17:09:25;;;;;;;0.10;0.10;;;12.10;87.00;;;;;;5036200;28;20030;-82
2023/11/16 17:11:51;;;;;;;0.10;0.10;;;12.00;86.20;;;;;;5019470;28;20114;-83
2023/11/16 17:14:17;;;;;;;0.10;0.10;;;11.90;86.30;;;;;;5038116;28;20025;-80
2023/11/16 17:16:43;;;;;;;0.10;0.10;;;11.90;86.80;;;;;;5016281;28;20064;-81
2023/11/16 17:19:09;;;;;;;0.10;0.10;;;11.80;87.10;;;;;;5014080;28;20057;-81
2023/11/16 17:21:35;;;;;;;0.10;0.10;;;11.80;86.10;;;;;;5032634;28;20022;-82
2023/11/16 17:24:01;;;;;;;0.10;0.10;;;11.70;86.50;;;;;;5016626;28;20026;-81
2023/11/16 17:26:26;;;;;;;0.10;0.10;;;11.70;87.20;;;;;;5015436;28;20054;-81
2023/11/16 17:28:53;;;;;;;0.10;0.10;;;11.70;86.90;;;;;;5035233;28;20026;-80
2023/11/16 17:31:18;;;;;;;0.10;0.10;;;11.70;87.50;;;;;;5023203;28;20415;-80
2023/11/16 17:33:44;;;;;;;0.10;0.10;;;11.70;87.50;;;;;;5047624;28;20026;-82
2023/11/16 17:36:10;;;;;;;0.15;0.15;;;11.70;87.90;;;;;;5044735;28;20017;-85
2023/11/16 17:38:36;;;;;;;0.10;0.10;;;11.70;87.60;;;;;;5044509;28;20018;-83
2023/11/16 17:41:05;;;;;;;0.13;0.10;;;11.70;87.70;;;;;;5044984;28;20048;-83
2023/11/16 17:43:34;;;;;;;0.10;0.10;;;11.60;87.60;;;;;;5045579;28;20098;-79
2023/11/16 17:46:03;;;;;;;0.10;0.10;;;11.60;88.10;;;;;;5025814;28;20021;-83
2023/11/16 17:48:30;;;;;;;0.10;0.10;;;11.60;88.40;;;;;;5029270;28;20017;-86
2023/11/16 17:50:56;;;;;;;0.10;0.10;;;11.50;88.20;;;;;;5029946;28;20152;-81
2023/11/16 17:53:22;;;;;;;0.10;0.10;;;11.50;88.50;;;;;;5025791;28;20033;-82
2023/11/16 17:55:48;;;;;;;0.10;0.10;;;11.40;88.30;;;;;;5045280;28;20048;-81
2023/11/16 17:58:14;;;;;;;0.10;0.10;;;11.40;88.30;;;;;;5018718;28;20041;-82
2023/11/16 18:00:40;;;;;;;0.10;0.10;;;11.40;88.60;;;;;;5036518;28;20025;-85
2023/11/16 18:03:06;;;;;;;0.10;0.10;;;11.30;88.40;;;;;;5036822;28;20045;-79
2023/11/16 18:05:31;;;;;;;0.00;0.00;;;11.30;88.60;;;;;;5036588;28;20106;-82
2023/11/16 18:07:57;;;;;;;0.10;0.10;;;11.30;88.80;;;;;;5019447;28;20025;-84
2023/11/16 18:10:22;;;;;;;0.10;0.10;;;11.30;88.60;;;;;;5045905;28;20021;-84
2023/11/16 18:12:48;;;;;;;0.10;0.10;;;11.30;89.10;;;;;;5044575;28;21455;-86
2023/11/16 18:15:17;;;;;;;0.10;0.10;;;11.30;89.00;;;;;;5044482;28;20049;-86
2023/11/16 18:17:44;;;;;;;0.10;0.10;;;11.40;88.80;;;;;;5029156;28;20029;-87
2023/11/16 18:20:12;;;;;;;0.10;0.10;;;11.40;89.10;;;;;;5028601;28;20032;-86
2023/11/16 18:22:38;;;;;;;0.10;0.10;;;11.50;88.90;;;;;;5027375;28;20040;-85
2023/11/16 18:25:05;;;;;;;0.10;0.10;;;11.50;89.00;;;;;;5045480;28;20088;-87
2023/11/16 18:27:33;;;;;;;0.10;0.10;;;11.50;88.70;;;;;;5026797;28;20036;-86